Time;durP1;ratioP1;P1;durP2;ratioP2;P2;SDS_P1;SDS_P2;PMS_P1;PMS_P2;Temp;Humidity;BMP_temperature;BMP_pressure;BME280_temperature;BME280_humidity;BME280_pressure;Samples;Min_cycle;Max_cycle;Signal;HPM_P1;HPM_P2
2021/03/24 00:00:49;;;;;;;24.10;16.03;;;2.60;99.90;;;;;;5033672;28;20239;-80
2021/03/24 00:03:16;;;;;;;26.73;15.20;;;2.50;99.90;;;;;;5033016;28;20245;-80
2021/03/24 00:05:45;;;;;;;27.27;16.07;;;2.40;99.90;;;;;;5033224;28;20208;-80
2021/03/24 00:08:11;;;;;;;25.57;15.73;;;2.40;99.90;;;;;;5033262;28;20620;-81
2021/03/24 00:10:40;;;;;;;24.50;14.80;;;2.40;99.90;;;;;;5047506;28;20199;-80
2021/03/24 00:13:07;;;;;;;27.00;15.53;;;2.40;99.90;;;;;;5053407;28;20196;-80
2021/03/24 00:15:35;;;;;;;28.17;15.53;;;2.40;99.90;;;;;;5053738;28;20207;-80
2021/03/24 00:18:03;;;;;;;25.70;15.37;;;2.40;99.90;;;;;;5052217;28;20274;-81
2021/03/24 00:20:32;;;;;;;27.40;15.43;;;2.40;99.90;;;;;;5052279;28;20206;-80
2021/03/24 00:22:59;;;;;;;27.37;15.93;;;2.40;99.90;;;;;;5051770;28;20235;-80
2021/03/24 00:25:26;;;;;;;27.60;16.27;;;2.40;99.90;;;;;;5033928;28;20228;-80
2021/03/24 00:27:53;;;;;;;26.47;14.97;;;2.40;99.90;;;;;;5032237;28;20231;-80
2021/03/24 00:30:23;;;;;;;29.00;16.47;;;2.30;99.90;;;;;;5031897;28;20300;-80
2021/03/24 00:32:49;;;;;;;26.97;14.97;;;2.40;99.90;;;;;;5044324;28;20285;-80
2021/03/24 00:35:16;;;;;;;27.03;15.00;;;2.50;99.90;;;;;;5051667;28;20231;-80
2021/03/24 00:37:43;;;;;;;25.87;14.87;;;2.40;99.90;;;;;;5051991;28;20282;-80
2021/03/24 00:40:13;;;;;;;23.23;14.77;;;2.20;99.90;;;;;;5052648;28;20224;-80
2021/03/24 00:42:39;;;;;;;23.57;14.20;;;2.20;99.90;;;;;;5055619;28;20565;-80
2021/03/24 00:45:07;;;;;;;24.30;14.07;;;2.20;99.90;;;;;;5055704;28;20262;-80
2021/03/24 00:47:34;;;;;;;23.70;14.73;;;2.10;99.90;;;;;;5055635;28;20231;-80
2021/03/24 00:50:02;;;;;;;23.77;14.30;;;2.00;99.90;;;;;;5055109;28;20666;-80
2021/03/24 00:52:29;;;;;;;23.40;15.27;;;2.00;99.90;;;;;;5055581;28;20288;-80
2021/03/24 00:54:56;;;;;;;24.37;14.67;;;1.90;99.90;;;;;;5050075;28;20199;-80
2021/03/24 00:57:22;;;;;;;27.33;15.53;;;1.80;99.90;;;;;;5044079;28;20274;-80
2021/03/24 00:59:48;;;;;;;26.90;16.40;;;1.80;99.90;;;;;;5055603;28;20236;-80
2021/03/24 01:02:15;;;;;;;27.47;15.40;;;1.90;99.90;;;;;;5054771;28;20231;-80
2021/03/24 01:04:42;;;;;;;28.57;15.90;;;1.90;99.90;;;;;;5052070;28;20296;-80
2021/03/24 01:07:10;;;;;;;25.53;14.57;;;1.80;99.90;;;;;;5050591;28;20199;-80
2021/03/24 01:09:37;;;;;;;23.90;13.53;;;1.80;99.90;;;;;;5045143;28;20262;-80
2021/03/24 01:12:05;;;;;;;23.23;13.90;;;1.70;99.90;;;;;;5055081;28;20591;-80
2021/03/24 01:14:31;;;;;;;22.90;13.70;;;1.70;99.90;;;;;;5052494;28;20227;-80
2021/03/24 01:16:58;;;;;;;19.60;12.27;;;1.60;99.90;;;;;;5049870;28;20259;-80
2021/03/24 01:19:25;;;;;;;22.33;12.80;;;1.60;99.90;;;;;;5042336;28;20232;-80
2021/03/24 01:21:51;;;;;;;22.27;13.27;;;1.50;99.90;;;;;;5054420;28;20242;-80
2021/03/24 01:24:17;;;;;;;19.57;13.17;;;1.40;99.90;;;;;;5054667;28;20277;-80
2021/03/24 01:26:45;;;;;;;21.70;13.83;;;1.30;99.90;;;;;;5038509;28;20343;-80
2021/03/24 01:29:11;;;;;;;23.50;12.83;;;1.40;99.90;;;;;;5044552;28;20234;-80
2021/03/24 01:31:37;;;;;;;21.77;12.37;;;1.50;99.90;;;;;;5054349;28;20246;-80
2021/03/24 01:34:04;;;;;;;20.87;12.43;;;1.50;99.90;;;;;;5054690;28;20287;-80
2021/03/24 01:36:31;;;;;;;23.07;12.40;;;1.40;99.90;;;;;;5054498;28;20208;-80
2021/03/24 01:38:57;;;;;;;21.50;13.00;;;1.30;99.90;;;;;;5048136;28;20723;-80
2021/03/24 01:41:26;;;;;;;22.13;13.57;;;1.40;99.90;;;;;;5034906;28;20239;-81
2021/03/24 01:43:55;;;;;;;24.50;14.10;;;1.30;99.90;;;;;;5034537;28;20663;-80
2021/03/24 01:46:40;;;;;;;21.23;13.67;;;1.30;99.90;;;;;;5036615;28;20196;-80
2021/03/24 01:49:16;;;;;;;20.47;12.77;;;1.30;99.90;;;;;;5050120;28;21620;-80
2021/03/24 01:51:44;;;;;;;23.27;13.53;;;1.30;99.90;;;;;;5051556;28;20241;-80
2021/03/24 01:54:14;;;;;;;27.40;14.10;;;1.20;99.90;;;;;;5054432;28;20336;-81
2021/03/24 01:56:44;;;;;;;28.20;14.83;;;1.10;99.90;;;;;;5041167;28;20692;-80
2021/03/24 01:59:12;;;;;;;29.70;15.50;;;1.20;99.90;;;;;;5034426;28;20237;-80
2021/03/24 02:01:39;;;;;;;22.10;13.87;;;1.20;99.90;;;;;;5042114;28;20259;-81
2021/03/24 02:04:06;;;;;;;25.47;14.63;;;1.20;99.90;;;;;;5039549;28;20295;-80
2021/03/24 02:06:38;;;;;;;27.00;14.80;;;1.30;99.90;;;;;;5054177;28;20202;-80
2021/03/24 02:09:12;;;;;;;23.77;13.60;;;1.20;99.90;;;;;;5035999;28;20283;-80
2021/03/24 02:11:45;;;;;;;23.00;13.67;;;1.00;99.90;;;;;;5054426;28;20205;-80
2021/03/24 02:14:18;;;;;;;24.37;14.03;;;1.00;99.90;;;;;;5053767;28;20275;-80
2021/03/24 02:16:48;;;;;;;24.57;13.97;;;1.00;99.90;;;;;;5053323;28;20295;-80
2021/03/24 02:19:26;;;;;;;24.30;14.17;;;1.00;99.90;;;;;;5052512;28;20198;-80
2021/03/24 02:21:54;;;;;;;20.37;12.63;;;0.90;99.90;;;;;;5047286;28;20281;-80
2021/03/24 02:24:47;;;;;;;23.33;13.00;;;0.80;99.90;;;;;;5053610;28;20267;-80
2021/03/24 02:27:18;;;;;;;23.43;13.70;;;0.70;99.90;;;;;;5025145;28;20198;-80
2021/03/24 02:29:50;;;;;;;26.07;16.67;;;0.60;99.90;;;;;;5053623;28;20231;-81
2021/03/24 02:32:19;;;;;;;26.03;16.50;;;0.60;99.90;;;;;;5053482;28;20243;-80
2021/03/24 02:34:47;;;;;;;23.63;16.10;;;0.60;99.90;;;;;;5053671;28;20232;-79
2021/03/24 02:37:15;;;;;;;26.97;16.53;;;0.60;99.90;;;;;;5053454;28;20235;-80
2021/03/24 02:39:43;;;;;;;23.57;14.87;;;0.50;99.90;;;;;;5053726;28;20208;-80
2021/03/24 02:42:13;;;;;;;25.17;14.17;;;0.50;99.90;;;;;;5052714;28;20236;-80
2021/03/24 02:44:43;;;;;;;24.60;14.23;;;0.50;99.90;;;;;;5049590;28;20307;-80
2021/03/24 02:47:10;;;;;;;22.83;14.27;;;0.60;99.90;;;;;;5053089;28;20240;-80
2021/03/24 02:49:40;;;;;;;23.17;14.53;;;0.70;99.90;;;;;;5053018;28;20236;-80
2021/03/24 02:52:07;;;;;;;25.37;14.20;;;0.60;99.90;;;;;;5034936;28;20196;-79
2021/03/24 02:54:35;;;;;;;24.03;14.53;;;0.50;99.90;;;;;;5048376;28;20258;-80
2021/03/24 02:57:03;;;;;;;22.30;14.03;;;0.40;99.90;;;;;;5042931;28;20645;-80
2021/03/24 02:59:29;;;;;;;25.33;14.63;;;0.40;99.90;;;;;;5039974;28;20208;-80
2021/03/24 03:02:03;;;;;;;25.70;15.97;;;0.40;99.90;;;;;;5053513;28;20232;-80
2021/03/24 03:04:35;;;;;;;27.97;15.80;;;0.40;99.90;;;;;;5052872;28;20267;-80
2021/03/24 03:07:06;;;;;;;24.37;14.90;;;0.40;99.90;;;;;;5052765;28;20231;-80
2021/03/24 03:09:39;;;;;;;27.27;14.37;;;0.50;99.90;;;;;;5052445;28;20250;-80
2021/03/24 03:12:11;;;;;;;25.77;14.93;;;0.40;99.90;;;;;;5052293;28;20200;-80
2021/03/24 03:14:43;;;;;;;27.27;15.60;;;0.40;99.90;;;;;;5051698;28;20226;-80
2021/03/24 03:17:15;;;;;;;25.73;15.77;;;0.50;99.90;;;;;;5044417;28;20251;-80
2021/03/24 03:19:45;;;;;;;28.97;15.57;;;0.50;99.90;;;;;;5035272;28;20258;-80
2021/03/24 03:22:18;;;;;;;25.20;15.87;;;0.50;99.90;;;;;;5052125;28;20271;-80
2021/03/24 03:24:50;;;;;;;30.60;16.10;;;0.50;99.90;;;;;;5048971;28;20739;-80
2021/03/24 03:27:19;;;;;;;30.37;16.20;;;0.60;99.90;;;;;;5052421;28;20734;-80
2021/03/24 03:29:46;;;;;;;24.50;15.33;;;0.60;99.90;;;;;;5052296;28;20703;-80
2021/03/24 03:32:18;;;;;;;29.40;15.87;;;0.70;99.90;;;;;;5052977;28;20207;-80
2021/03/24 03:34:49;;;;;;;26.40;15.60;;;0.70;99.90;;;;;;5051042;28;20192;-80
2021/03/24 03:37:18;;;;;;;29.10;16.90;;;0.70;99.90;;;;;;5052593;28;20239;-80
2021/03/24 03:39:46;;;;;;;25.17;15.10;;;0.70;99.90;;;;;;5051969;28;20231;-80
2021/03/24 03:42:14;;;;;;;27.33;15.20;;;0.60;99.90;;;;;;5051195;28;20208;-80
2021/03/24 03:44:41;;;;;;;28.80;16.03;;;0.60;99.90;;;;;;5052275;28;20306;-80
2021/03/24 03:47:11;;;;;;;28.27;16.33;;;0.50;99.90;;;;;;5052571;28;20247;-80
2021/03/24 03:49:40;;;;;;;26.60;16.03;;;0.60;99.90;;;;;;5052218;28;20676;-79
2021/03/24 03:52:36;;;;;;;29.40;16.17;;;0.60;99.90;;;;;;5052306;28;20214;-80
2021/03/24 03:55:14;;;;;;;24.90;15.30;;;0.60;99.90;;;;;;5051859;28;20261;-80
2021/03/24 03:57:50;;;;;;;28.57;15.97;;;0.60;99.90;;;;;;5052258;28;20230;-80
2021/03/24 04:00:22;;;;;;;26.43;16.10;;;0.60;99.90;;;;;;5040433;28;20416;-80
2021/03/24 04:02:53;;;;;;;28.60;16.17;;;0.60;99.90;;;;;;5032287;28;20240;-80
2021/03/24 04:05:26;;;;;;;31.50;16.73;;;0.60;99.90;;;;;;5032873;28;20259;-80
2021/03/24 04:07:58;;;;;;;29.20;16.23;;;0.60;99.90;;;;;;5052405;28;20269;-80
2021/03/24 04:10:28;;;;;;;26.73;15.10;;;0.60;99.90;;;;;;5051635;28;20200;-81
2021/03/24 04:12:56;;;;;;;26.37;16.03;;;0.50;99.90;;;;;;5033482;28;20201;-80
2021/03/24 04:15:25;;;;;;;27.87;16.30;;;0.40;99.90;;;;;;5037138;28;20202;-80
2021/03/24 04:17:58;;;;;;;26.87;15.83;;;0.40;99.90;;;;;;5021267;28;20230;-80
2021/03/24 04:20:27;;;;;;;25.57;15.93;;;0.40;99.90;;;;;;5038922;28;20241;-80
2021/03/24 04:22:56;;;;;;;28.23;15.73;;;0.40;99.90;;;;;;5056149;28;20227;-80
2021/03/24 04:25:27;;;;;;;26.20;15.10;;;0.40;99.90;;;;;;5048618;28;20251;-80
2021/03/24 04:27:58;;;;;;;24.17;14.60;;;0.30;99.90;;;;;;5057684;28;20238;-80
2021/03/24 04:30:30;;;;;;;26.17;14.83;;;0.20;99.90;;;;;;5041347;28;20667;-80
2021/03/24 04:32:57;;;;;;;24.30;14.90;;;0.10;99.90;;;;;;5058471;28;20211;-80
2021/03/24 04:35:24;;;;;;;28.80;15.73;;;0.00;99.90;;;;;;5058368;28;20545;-80
2021/03/24 04:37:55;;;;;;;27.23;14.37;;;0.00;99.90;;;;;;5058716;28;20243;-80
2021/03/24 04:40:27;;;;;;;22.63;14.20;;;0.00;99.90;;;;;;5056312;28;20203;-80
2021/03/24 04:42:58;;;;;;;22.00;13.60;;;0.00;99.90;;;;;;5054587;28;20200;-80
2021/03/24 04:45:36;;;;;;;22.57;13.93;;;-0.10;99.90;;;;;;5058700;28;20227;-80
2021/03/24 04:48:07;;;;;;;24.10;14.40;;;0.00;99.90;;;;;;5058063;28;20653;-80
2021/03/24 04:50:37;;;;;;;22.97;14.30;;;0.00;99.90;;;;;;5050832;28;20239;-80
2021/03/24 04:53:06;;;;;;;22.00;14.47;;;0.00;99.90;;;;;;5058422;28;20580;-80
2021/03/24 04:55:34;;;;;;;28.37;14.57;;;-0.10;99.90;;;;;;5049633;28;20231;-80
2021/03/24 04:58:04;;;;;;;22.83;13.77;;;-0.20;99.90;;;;;;5038630;28;20200;-80
2021/03/24 05:00:37;;;;;;;25.73;15.30;;;-0.10;99.90;;;;;;5043595;28;20242;-80
2021/03/24 05:03:09;;;;;;;27.20;16.33;;;-0.10;99.90;;;;;;5056444;28;20234;-80
2021/03/24 05:05:40;;;;;;;28.27;17.33;;;-0.10;99.90;;;;;;5057531;28;20258;-80
2021/03/24 05:08:18;;;;;;;25.83;14.50;;;-0.20;99.90;;;;;;5046472;28;20208;-79
2021/03/24 05:10:44;;;;;;;25.27;14.40;;;-0.30;99.90;;;;;;5053985;28;20234;-80
2021/03/24 05:13:22;;;;;;;22.33;14.40;;;-0.30;99.90;;;;;;5057772;28;20242;-80
2021/03/24 05:15:57;;;;;;;23.37;14.20;;;-0.40;99.90;;;;;;5037804;28;20200;-80
2021/03/24 05:18:24;;;;;;;24.37;13.83;;;-0.50;99.90;;;;;;5053492;28;20254;-80
2021/03/24 05:20:57;;;;;;;23.13;13.97;;;-0.50;99.90;;;;;;5057635;28;20200;-80
2021/03/24 05:23:25;;;;;;;22.57;12.27;;;-0.60;99.90;;;;;;5057248;28;20258;-80
2021/03/24 05:26:00;;;;;;;20.60;13.00;;;-0.60;99.90;;;;;;5057110;28;20658;-80
2021/03/24 05:28:30;;;;;;;22.10;12.77;;;-0.60;99.90;;;;;;5051700;28;20195;-79
2021/03/24 05:31:03;;;;;;;27.53;14.00;;;-0.50;99.90;;;;;;5054785;28;20247;-80
2021/03/24 05:33:34;;;;;;;23.13;13.73;;;-0.50;99.90;;;;;;5054682;28;20283;-80
2021/03/24 05:36:05;;;;;;;25.83;13.83;;;-0.50;99.90;;;;;;5055166;28;20227;-79
2021/03/24 05:38:36;;;;;;;22.37;13.33;;;-0.50;99.90;;;;;;5054517;28;20577;-79
2021/03/24 05:41:15;;;;;;;22.20;13.37;;;-0.50;99.90;;;;;;5054618;28;20287;-80
2021/03/24 05:44:00;;;;;;;23.83;13.93;;;-0.50;99.90;;;;;;5053588;28;20215;-80
2021/03/24 05:46:43;;;;;;;21.37;13.17;;;-0.50;99.90;;;;;;5054690;28;20234;-80
2021/03/24 05:49:26;;;;;;;28.00;14.03;;;-0.50;99.90;;;;;;5041492;28;20232;-80
2021/03/24 05:52:05;;;;;;;23.70;14.17;;;-0.40;99.90;;;;;;5034204;28;20203;-80
2021/03/24 05:54:58;;;;;;;24.03;13.77;;;-0.40;99.90;;;;;;5047189;28;20227;-80
2021/03/24 05:57:36;;;;;;;22.60;13.40;;;-0.40;99.90;;;;;;5022153;28;20267;-80
2021/03/24 06:00:21;;;;;;;21.60;12.63;;;-0.50;99.90;;;;;;4996830;28;20280;-80
2021/03/24 06:02:59;;;;;;;24.20;13.87;;;-0.40;99.90;;;;;;5012544;28;20279;-80
2021/03/24 06:05:30;;;;;;;22.17;13.10;;;-0.40;99.90;;;;;;5029878;28;20427;-79
2021/03/24 06:08:19;;;;;;;21.83;12.30;;;-0.40;99.90;;;;;;5031958;28;20255;-81
2021/03/24 06:10:58;;;;;;;22.10;12.30;;;-0.40;99.90;;;;;;5031540;28;20676;-81
2021/03/24 06:14:10;;;;;;;21.43;12.20;;;-0.40;99.90;;;;;;5030983;28;20232;-81
2021/03/24 06:16:54;;;;;;;18.47;11.37;;;-0.40;99.90;;;;;;5031534;28;20692;-81
2021/03/24 06:19:31;;;;;;;21.87;12.93;;;-0.40;99.90;;;;;;5031939;28;20236;-81
2021/03/24 06:22:07;;;;;;;22.50;13.27;;;-0.30;99.90;;;;;;5031087;28;20232;-84
2021/03/24 06:24:48;;;;;;;21.60;13.27;;;-0.20;99.90;;;;;;5032079;28;20310;-83
2021/03/24 06:27:38;;;;;;;25.93;14.40;;;-0.10;99.90;;;;;;5031199;28;20239;-83
2021/03/24 06:30:34;;;;;;;27.83;16.93;;;0.10;99.90;;;;;;5009538;28;20229;-83
2021/03/24 06:33:20;;;;;;;26.53;15.90;;;0.20;99.90;;;;;;5002662;28;20251;-83
2021/03/24 06:36:34;;;;;;;28.37;15.37;;;0.40;99.90;;;;;;5046027;28;20196;-84
2021/03/24 06:39:24;;;;;;;24.77;14.80;;;0.70;99.90;;;;;;4968284;28;20297;-84
2021/03/24 06:42:10;;;;;;;23.73;14.97;;;0.90;99.90;;;;;;4947619;28;20199;-83
2021/03/24 06:45:13;;;;;;;27.93;15.53;;;1.20;99.90;;;;;;4972639;28;20235;-84
2021/03/24 06:47:51;;;;;;;25.23;15.50;;;1.30;99.90;;;;;;4965878;28;20243;-84
2021/03/24 06:50:59;;;;;;;27.90;15.97;;;1.50;99.90;;;;;;4970192;28;20237;-83
2021/03/24 06:53:55;;;;;;;27.50;16.50;;;2.00;99.90;;;;;;4968289;28;20702;-83
2021/03/24 06:56:58;;;;;;;31.47;16.90;;;2.80;99.90;;;;;;4968656;28;20640;-84
2021/03/24 06:59:58;;;;;;;24.47;15.87;;;3.60;99.90;;;;;;4963745;28;20302;-83
2021/03/24 07:02:57;;;;;;;25.00;14.43;;;4.50;99.90;;;;;;4969588;28;20248;-85
2021/03/24 07:05:47;;;;;;;24.00;15.83;;;5.30;99.90;;;;;;4959734;28;20234;-84
2021/03/24 07:08:43;;;;;;;22.30;15.17;;;6.30;99.90;;;;;;4968424;28;20232;-83
2021/03/24 07:11:41;;;;;;;22.00;14.20;;;6.90;99.90;;;;;;5035889;28;20201;-80
2021/03/24 07:14:31;;;;;;;22.40;14.30;;;7.40;99.90;;;;;;5017171;28;20199;-80
2021/03/24 07:17:35;;;;;;;22.03;14.73;;;7.30;99.90;;;;;;5040856;28;20746;-81
2021/03/24 07:20:24;;;;;;;21.53;15.90;;;6.40;99.90;;;;;;5036042;28;20216;-82
2021/03/24 07:23:02;;;;;;;23.57;15.20;;;7.10;99.90;;;;;;5048153;28;20730;-81
2021/03/24 07:25:45;;;;;;;23.43;15.50;;;7.00;99.90;;;;;;5044518;28;20254;-81
2021/03/24 07:28:36;;;;;;;24.23;14.97;;;7.40;99.90;;;;;;5041477;28;20200;-87
2021/03/24 07:31:18;;;;;;;20.97;14.50;;;8.40;99.90;;;;;;5031948;28;20200;-86
2021/03/24 07:33:55;;;;;;;24.80;15.17;;;8.90;99.90;;;;;;5042477;28;20610;-81
2021/03/24 07:36:43;;;;;;;22.27;15.00;;;8.90;99.90;;;;;;5048009;28;20686;-81
2021/03/24 07:39:31;;;;;;;21.03;15.70;;;8.20;99.90;;;;;;5045708;28;20215;-81
2021/03/24 07:42:34;;;;;;;22.57;16.07;;;9.10;99.90;;;;;;5038341;28;20296;-82
2021/03/24 07:45:22;;;;;;;22.10;15.70;;;10.70;99.90;;;;;;5039205;28;20245;-81
2021/03/24 07:48:13;;;;;;;20.60;15.70;;;11.60;99.90;;;;;;5045273;28;20612;-81
2021/03/24 07:50:44;;;;;;;21.23;15.93;;;11.40;99.90;;;;;;5041137;28;20234;-80
2021/03/24 07:53:25;;;;;;;20.23;15.67;;;11.60;99.90;;;;;;5038822;28;20227;-81
2021/03/24 07:56:02;;;;;;;21.97;16.60;;;11.70;99.90;;;;;;5048007;28;20230;-82
2021/03/24 07:58:58;;;;;;;22.77;16.53;;;11.80;99.90;;;;;;5044676;28;20207;-83
2021/03/24 08:01:32;;;;;;;24.90;16.27;;;11.60;99.90;;;;;;5051560;28;20609;-83
2021/03/24 08:04:15;;;;;;;22.20;15.70;;;10.60;99.90;;;;;;5035010;28;20416;-80
2021/03/24 08:07:00;;;;;;;19.50;15.50;;;11.50;99.90;;;;;;5043413;28;20695;-81
2021/03/24 08:09:42;;;;;;;19.57;15.17;;;12.10;99.90;;;;;;5041509;28;20211;-82
2021/03/24 08:12:24;;;;;;;19.77;15.77;;;12.60;99.90;;;;;;5034728;28;20253;-80
2021/03/24 08:15:18;;;;;;;20.73;15.30;;;13.80;99.90;;;;;;5043035;28;20200;-82
2021/03/24 08:17:54;;;;;;;21.00;15.33;;;13.60;99.90;;;;;;5039567;28;20220;-81
2021/03/24 08:20:32;;;;;;;18.48;15.23;;;13.80;99.90;;;;;;5035144;28;20578;-83
2021/03/24 08:23:16;;;;;;;22.33;15.98;;;13.60;99.90;;;;;;5036551;28;20256;-81
2021/03/24 08:26:13;;;;;;;21.33;15.40;;;13.90;99.90;;;;;;5041855;28;20644;-83
2021/03/24 08:28:53;;;;;;;21.70;15.23;;;14.30;99.90;;;;;;5039742;28;20223;-83
2021/03/24 08:32:03;;;;;;;19.50;15.68;;;14.90;99.90;;;;;;5045698;28;20251;-83
2021/03/24 08:34:49;;;;;;;20.42;15.40;;;15.30;99.90;;;;;;5041786;28;20556;-90
2021/03/24 08:37:51;;;;;;;19.75;12.93;;;15.80;99.90;;;;;;5045813;28;20576;-82
2021/03/24 08:40:30;;;;;;;19.15;12.32;;;16.20;99.90;;;;;;5042990;28;20235;-81
2021/03/24 08:43:24;;;;;;;18.15;12.38;;;16.80;99.90;;;;;;5038705;28;20698;-81
2021/03/24 08:45:54;;;;;;;19.52;12.45;;;17.00;99.90;;;;;;5044894;28;20251;-81
2021/03/24 08:48:32;;;;;;;17.67;12.43;;;17.20;99.90;;;;;;5046452;28;20266;-82
2021/03/24 08:51:07;;;;;;;17.45;11.32;;;18.10;99.90;;;;;;5037288;28;20714;-83
2021/03/24 08:53:53;;;;;;;16.45;10.60;;;17.40;99.90;;;;;;5047089;28;20191;-83
2021/03/24 08:56:30;;;;;;;15.82;10.52;;;18.00;99.90;;;;;;5035078;28;20193;-82
2021/03/24 08:59:13;;;;;;;17.73;11.68;;;18.30;99.90;;;;;;5040810;28;20228;-82
2021/03/24 09:02:02;;;;;;;17.88;11.38;;;18.50;99.90;;;;;;5040022;28;20207;-82
2021/03/24 09:04:48;;;;;;;15.43;10.45;;;18.60;99.90;;;;;;5049074;28;20322;-81
2021/03/24 09:07:27;;;;;;;16.10;10.05;;;18.90;99.90;;;;;;5048593;28;20232;-81
2021/03/24 09:10:21;;;;;;;21.88;11.52;;;19.60;99.90;;;;;;5044795;28;20227;-82
2021/03/24 09:12:53;;;;;;;14.35;10.43;;;19.00;99.90;;;;;;5045778;28;20200;-81
2021/03/24 09:15:25;;;;;;;15.52;11.30;;;19.60;99.90;;;;;;5041738;28;20691;-79
2021/03/24 09:18:02;;;;;;;19.55;11.90;;;20.00;99.90;;;;;;5042006;28;20273;-80
2021/03/24 09:20:53;;;;;;;16.15;10.80;;;20.60;99.90;;;;;;5041474;28;20203;-80
2021/03/24 09:23:54;;;;;;;15.38;11.75;;;20.60;99.90;;;;;;5046187;28;20228;-81
2021/03/24 09:26:53;;;;;;;20.05;12.32;;;20.40;99.90;;;;;;5042738;28;20242;-80
2021/03/24 09:29:36;;;;;;;16.77;11.48;;;20.50;99.90;;;;;;5050094;28;20200;-80
2021/03/24 09:32:20;;;;;;;18.27;11.30;;;20.80;99.90;;;;;;5042378;28;20203;-80
2021/03/24 09:35:19;;;;;;;16.98;11.48;;;20.70;99.90;;;;;;5037002;28;20262;-81
2021/03/24 09:37:50;;;;;;;17.77;12.27;;;21.10;99.90;;;;;;5042394;28;20243;-81
2021/03/24 09:40:29;;;;;;;16.23;11.27;;;20.60;99.90;;;;;;5049153;28;20203;-81
2021/03/24 09:43:01;;;;;;;20.15;12.07;;;20.90;99.90;;;;;;5052685;28;20223;-80
2021/03/24 09:45:32;;;;;;;16.20;10.95;;;20.40;99.90;;;;;;5026541;28;20224;-81
2021/03/24 09:48:09;;;;;;;17.25;11.23;;;21.00;99.90;;;;;;5046922;28;20228;-81
2021/03/24 09:50:42;;;;;;;14.60;9.27;;;21.60;99.90;;;;;;5050997;28;20250;-80
2021/03/24 09:53:16;;;;;;;14.23;8.20;;;21.60;99.90;;;;;;5041870;28;20207;-81
2021/03/24 09:55:46;;;;;;;14.07;7.63;;;21.50;99.90;;;;;;5045311;28;20200;-80
2021/03/24 09:58:41;;;;;;;13.80;8.57;;;22.20;99.90;;;;;;5038112;28;20199;-81
2021/03/24 10:01:33;;;;;;;11.77;6.85;;;23.30;99.90;;;;;;5048371;28;20213;-80
2021/03/24 10:04:11;;;;;;;11.68;7.03;;;22.30;99.90;;;;;;5040333;28;20208;-81
2021/03/24 10:06:49;;;;;;;12.68;7.85;;;23.00;99.90;;;;;;5049560;28;20654;-80
2021/03/24 10:09:25;;;;;;;16.38;7.53;;;22.50;99.90;;;;;;5052728;28;20246;-82
2021/03/24 10:12:03;;;;;;;14.68;7.72;;;22.20;99.90;;;;;;5045788;28;20235;-80
2021/03/24 10:14:36;;;;;;;10.07;6.88;;;21.70;99.90;;;;;;5039299;28;20223;-80
2021/03/24 10:17:08;;;;;;;12.35;7.13;;;22.20;99.90;;;;;;5039429;28;20215;-81
2021/03/24 10:19:43;;;;;;;14.55;7.30;;;22.80;99.90;;;;;;5052351;28;20683;-81
2021/03/24 10:22:13;;;;;;;14.05;7.70;;;22.00;99.90;;;;;;5048575;28;20203;-85
2021/03/24 10:24:44;;;;;;;9.25;6.47;;;22.90;99.90;;;;;;5040907;28;20706;-84
2021/03/24 10:27:13;;;;;;;11.35;7.38;;;23.40;99.90;;;;;;5050378;28;20239;-84
2021/03/24 10:29:48;;;;;;;13.32;7.30;;;22.70;99.90;;;;;;5054290;28;20200;-84
2021/03/24 10:32:24;;;;;;;14.93;7.20;;;22.00;99.90;;;;;;5055163;28;20199;-84
2021/03/24 10:34:57;;;;;;;11.25;7.95;;;22.50;99.90;;;;;;5045896;28;20585;-85
2021/03/24 10:37:31;;;;;;;12.73;7.68;;;23.10;99.90;;;;;;5049817;28;20219;-85
2021/03/24 10:40:02;;;;;;;13.60;8.05;;;23.80;99.90;;;;;;5048548;28;20206;-85
2021/03/24 10:42:34;;;;;;;10.98;7.90;;;24.00;99.90;;;;;;5054085;28;20251;-84
2021/03/24 10:45:05;;;;;;;11.38;7.70;;;23.40;99.90;;;;;;5053914;28;20188;-85
2021/03/24 10:47:37;;;;;;;15.05;8.70;;;24.00;99.90;;;;;;5048113;28;20278;-85
2021/03/24 10:50:24;;;;;;;13.80;8.50;;;23.00;99.90;;;;;;5035384;28;20193;-84
2021/03/24 10:53:14;;;;;;;12.75;8.45;;;22.60;99.90;;;;;;5043192;28;20234;-84
2021/03/24 10:55:44;;;;;;;13.30;8.20;;;21.30;99.90;;;;;;5036812;28;20307;-83
2021/03/24 10:58:45;;;;;;;11.93;7.72;;;21.40;99.90;;;;;;5033590;28;20656;-83
2021/03/24 11:01:16;;;;;;;10.90;7.57;;;20.50;99.90;;;;;;5048807;28;20196;-83
2021/03/24 11:04:00;;;;;;;10.80;7.15;;;21.80;99.90;;;;;;5039922;28;20722;-84
2021/03/24 11:06:38;;;;;;;12.18;7.93;;;20.80;99.90;;;;;;5052366;28;20207;-83
2021/03/24 11:09:10;;;;;;;11.35;7.80;;;19.60;99.90;;;;;;5040617;28;20196;-84
2021/03/24 11:11:41;;;;;;;11.75;7.45;;;20.90;99.90;;;;;;5037969;28;20652;-84
2021/03/24 11:14:15;;;;;;;10.95;7.15;;;22.60;99.90;;;;;;5047341;28;20683;-84
2021/03/24 11:16:46;;;;;;;11.07;6.70;;;20.70;99.90;;;;;;5050938;28;20195;-84
2021/03/24 11:19:21;;;;;;;11.15;6.38;;;20.40;99.90;;;;;;5040145;28;20196;-85
2021/03/24 11:22:05;;;;;;;9.23;6.60;;;20.80;99.90;;;;;;5023973;28;20234;-84
2021/03/24 11:24:42;;;;;;;12.65;6.85;;;21.40;99.90;;;;;;5044072;28;20254;-85
2021/03/24 11:27:29;;;;;;;8.35;6.18;;;22.00;99.90;;;;;;5045645;28;20218;-84
2021/03/24 11:30:13;;;;;;;11.43;6.53;;;21.90;99.90;;;;;;5051301;28;20204;-87
2021/03/24 11:32:46;;;;;;;10.40;6.85;;;20.70;99.90;;;;;;5038206;28;20224;-85
2021/03/24 11:35:24;;;;;;;12.55;7.07;;;19.30;99.90;;;;;;5035881;28;20248;-82
2021/03/24 11:38:00;;;;;;;8.82;6.25;;;18.70;99.90;;;;;;5045843;28;20202;-81
2021/03/24 11:40:33;;;;;;;13.00;7.03;;;18.90;99.90;;;;;;5048904;28;20247;-88
2021/03/24 11:43:02;;;;;;;12.68;7.47;;;18.30;99.90;;;;;;5043832;28;20223;-82
2021/03/24 11:45:31;;;;;;;10.18;6.50;;;18.00;99.90;;;;;;5036197;28;20259;-83
2021/03/24 11:48:18;;;;;;;9.65;7.22;;;17.50;99.90;;;;;;5045515;28;20204;-85
2021/03/24 11:50:56;;;;;;;12.32;5.82;;;17.70;99.90;;;;;;5044726;28;20211;-85
2021/03/24 11:53:38;;;;;;;9.27;5.40;;;17.60;99.90;;;;;;5036812;28;20206;-83
2021/03/24 11:56:18;;;;;;;8.00;5.75;;;17.60;99.90;;;;;;5035343;28;20224;-83
2021/03/24 11:58:49;;;;;;;11.80;6.63;;;17.70;99.90;;;;;;5048909;28;20230;-82
2021/03/24 12:01:38;;;;;;;8.40;6.20;;;17.40;99.90;;;;;;5051117;28;20214;-82
2021/03/24 12:04:35;;;;;;;13.00;6.70;;;17.20;99.90;;;;;;5046481;28;20676;-82
2021/03/24 12:07:17;;;;;;;9.07;6.40;;;16.60;99.90;;;;;;5042748;28;20220;-82
2021/03/24 12:09:45;;;;;;;9.10;6.30;;;16.60;99.90;;;;;;5041826;28;20573;-82
2021/03/24 12:12:20;;;;;;;10.83;6.57;;;16.50;99.90;;;;;;5034884;28;20204;-83
2021/03/24 12:15:05;;;;;;;8.13;5.60;;;16.70;99.90;;;;;;5037677;28;20273;-83
2021/03/24 12:17:34;;;;;;;7.97;4.97;;;17.10;99.90;;;;;;5041242;28;20314;-82
2021/03/24 12:20:07;;;;;;;8.83;6.00;;;16.90;99.90;;;;;;5051880;28;20649;-83
2021/03/24 12:22:34;;;;;;;7.13;5.93;;;17.00;99.90;;;;;;5051354;28;20224;-82
2021/03/24 12:25:05;;;;;;;10.97;6.73;;;16.90;99.90;;;;;;5049879;28;20191;-83
2021/03/24 12:27:33;;;;;;;13.43;8.63;;;16.70;99.90;;;;;;5026858;28;20724;-82
2021/03/24 12:30:04;;;;;;;13.37;7.60;;;16.70;99.90;;;;;;5029403;28;20204;-82
2021/03/24 12:32:35;;;;;;;12.23;7.20;;;16.50;99.90;;;;;;5044892;28;20258;-82
2021/03/24 12:35:05;;;;;;;9.27;5.80;;;16.90;99.90;;;;;;5050044;28;20251;-82
2021/03/24 12:37:38;;;;;;;10.57;5.93;;;16.90;99.90;;;;;;5051316;28;20204;-82
2021/03/24 12:40:10;;;;;;;7.27;5.53;;;16.90;99.90;;;;;;5046596;28;20266;-82
2021/03/24 12:42:38;;;;;;;9.33;5.67;;;16.80;99.90;;;;;;5050748;28;20226;-83
2021/03/24 12:45:36;;;;;;;11.37;5.50;;;16.70;99.90;;;;;;5045087;28;20220;-81
2021/03/24 12:48:13;;;;;;;10.43;5.83;;;16.90;99.90;;;;;;5049054;28;20257;-77
2021/03/24 12:50:49;;;;;;;10.53;5.73;;;17.60;99.90;;;;;;5042904;28;20207;-79
2021/03/24 12:53:35;;;;;;;9.93;5.73;;;18.20;99.90;;;;;;5044662;28;20309;-79
2021/03/24 12:56:34;;;;;;;10.43;6.00;;;18.20;99.90;;;;;;5046459;28;20314;-80
2021/03/24 12:59:13;;;;;;;7.78;5.25;;;19.00;99.90;;;;;;5023827;28;20208;-78
2021/03/24 13:02:01;;;;;;;10.38;5.70;;;18.40;99.90;;;;;;5040576;28;20667;-79
2021/03/24 13:04:57;;;;;;;9.40;5.00;;;17.80;99.90;;;;;;5048783;28;20208;-81
2021/03/24 13:07:30;;;;;;;9.30;5.10;;;17.90;99.90;;;;;;5037006;28;20196;-77
2021/03/24 13:10:22;;;;;;;8.02;4.93;;;18.90;99.90;;;;;;5042495;28;20195;-79
2021/03/24 13:13:07;;;;;;;8.40;5.20;;;19.70;99.90;;;;;;5043076;28;20193;-79
2021/03/24 13:15:48;;;;;;;9.95;5.05;;;18.90;99.90;;;;;;5051295;28;20230;-77
2021/03/24 13:18:24;;;;;;;11.30;4.80;;;17.80;99.90;;;;;;5046325;28;20223;-77
2021/03/24 13:21:08;;;;;;;8.60;5.32;;;17.70;99.90;;;;;;5015072;28;20211;-77
2021/03/24 13:26:41;;;;;;;9.73;5.35;;;18.10;99.90;;;;;;5043661;28;20299;-77